Time;durP1;ratioP1;P1;durP2;ratioP2;P2;SDS_P1;SDS_P2;PMS_P1;PMS_P2;Temp;Humidity;BMP_temperature;BMP_pressure;BME280_temperature;BME280_humidity;BME280_pressure;Samples;Min_cycle;Max_cycle;Signal;HPM_P1;HPM_P2
2021/09/15 00:01:44;;;;;;;10.35;6.40;;;20.70;86.80;;;;;;5096545;28;20111;-53
2021/09/15 00:04:10;;;;;;;8.07;6.00;;;20.60;86.80;;;;;;5096844;28;20127;-52
2021/09/15 00:06:36;;;;;;;11.02;6.00;;;20.70;87.10;;;;;;5096583;28;20077;-53
2021/09/15 00:09:02;;;;;;;9.40;5.82;;;20.70;86.60;;;;;;5061187;28;20043;-52
2021/09/15 00:11:27;;;;;;;10.60;7.00;;;20.70;86.50;;;;;;5096692;28;20031;-53
2021/09/15 00:13:53;;;;;;;10.88;6.70;;;20.80;86.70;;;;;;5096299;28;20032;-52
2021/09/15 00:16:19;;;;;;;8.13;6.15;;;20.60;86.80;;;;;;5061319;28;20031;-53
2021/09/15 00:18:45;;;;;;;8.50;6.93;;;20.60;86.90;;;;;;5060376;28;20384;-52
2021/09/15 00:21:10;;;;;;;10.10;6.93;;;20.30;87.20;;;;;;5096424;28;20055;-52
2021/09/15 00:23:38;;;;;;;10.82;7.15;;;20.00;88.40;;;;;;5095956;28;20056;-52
2021/09/15 00:26:04;;;;;;;8.75;7.72;;;19.80;89.50;;;;;;5096193;28;20035;-53
2021/09/15 00:28:30;;;;;;;8.25;6.88;;;;;;;;;;5096298;28;20020;-52
2021/09/15 00:30:56;;;;;;;9.02;7.00;;;19.80;89.60;;;;;;5095156;28;20101;-52
2021/09/15 00:33:22;;;;;;;8.50;7.45;;;19.80;89.70;;;;;;5044327;28;20112;-53
2021/09/15 00:35:48;;;;;;;10.02;7.57;;;19.80;89.80;;;;;;5027710;28;20122;-51
2021/09/15 00:38:17;;;;;;;9.88;6.95;;;19.80;90.00;;;;;;5027533;28;20840;-51
2021/09/15 00:40:42;;;;;;;13.07;7.80;;;19.90;89.60;;;;;;5096098;28;20036;-52
2021/09/15 00:43:08;;;;;;;8.30;6.72;;;19.90;89.70;;;;;;5096097;28;20379;-55
2021/09/15 00:45:34;;;;;;;10.77;6.82;;;19.90;89.60;;;;;;5095767;28;20546;-53
2021/09/15 00:48:00;;;;;;;11.05;7.35;;;19.80;89.90;;;;;;5095768;28;20530;-52
2021/09/15 00:50:25;;;;;;;8.38;7.05;;;19.80;89.90;;;;;;5095777;28;20028;-56
2021/09/15 00:52:52;;;;;;;11.25;7.13;;;19.90;90.00;;;;;;5060420;28;20043;-53
2021/09/15 00:55:18;;;;;;;10.07;6.68;;;19.90;90.10;;;;;;5095500;28;20055;-52
2021/09/15 00:57:44;;;;;;;8.45;6.55;;;19.90;90.10;;;;;;5043404;28;20044;-52
2021/09/15 01:00:10;;;;;;;10.27;6.93;;;19.90;90.30;;;;;;5095388;28;20113;-51
2021/09/15 01:02:36;;;;;;;11.05;7.10;;;19.90;89.90;;;;;;5095410;28;20028;-53
2021/09/15 01:05:02;;;;;;;11.60;6.93;;;20.00;89.70;;;;;;5095353;28;20038;-52
2021/09/15 01:07:28;;;;;;;11.77;7.22;;;20.00;89.40;;;;;;5095546;28;20032;-52
2021/09/15 01:09:54;;;;;;;13.48;7.70;;;20.10;89.30;;;;;;5095219;28;20019;-52
2021/09/15 01:12:21;;;;;;;9.93;6.53;;;20.10;89.20;;;;;;5095423;28;20030;-52
2021/09/15 01:14:46;;;;;;;7.13;6.30;;;20.10;89.00;;;;;;5095339;28;20084;-51
2021/09/15 01:17:12;;;;;;;14.48;7.05;;;20.00;89.70;;;;;;5059650;28;20044;-52
2021/09/15 01:19:38;;;;;;;9.95;6.97;;;20.00;89.90;;;;;;5095150;28;20035;-52
2021/09/15 01:22:03;;;;;;;8.40;6.82;;;19.90;89.90;;;;;;5094961;28;20051;-51
2021/09/15 01:24:31;;;;;;;22.20;8.57;;;19.90;90.00;;;;;;5095103;28;20036;-51
2021/09/15 01:26:58;;;;;;;7.18;6.43;;;19.90;89.60;;;;;;5059592;28;20028;-51
2021/09/15 01:29:27;;;;;;;9.15;6.40;;;20.00;89.60;;;;;;5094863;28;20028;-51
2021/09/15 01:32:13;;;;;;;9.82;7.25;;;19.90;89.60;;;;;;5091958;28;20028;-51
2021/09/15 01:34:41;;;;;;;8.65;7.22;;;19.90;90.10;;;;;;5094852;28;20464;-51
2021/09/15 01:37:09;;;;;;;9.05;7.20;;;19.90;89.40;;;;;;5094736;28;20044;-51
2021/09/15 01:39:35;;;;;;;8.98;7.70;;;19.80;90.00;;;;;;5094955;28;20020;-51
2021/09/15 01:42:03;;;;;;;9.98;7.40;;;19.80;89.70;;;;;;5094236;28;20099;-51
2021/09/15 01:44:41;;;;;;;8.20;6.70;;;19.70;89.40;;;;;;5093922;28;20038;-50
2021/09/15 01:47:10;;;;;;;8.00;7.13;;;19.70;89.70;;;;;;5059197;28;20036;-51
2021/09/15 01:49:37;;;;;;;8.95;6.70;;;19.60;90.10;;;;;;5094463;28;20055;-51
2021/09/15 01:52:04;;;;;;;10.98;6.93;;;19.60;90.20;;;;;;5094632;28;20448;-51
2021/09/15 01:54:31;;;;;;;9.00;7.25;;;19.60;90.10;;;;;;5094359;28;20468;-51
2021/09/15 01:56:57;;;;;;;8.38;6.70;;;19.60;90.20;;;;;;5094291;28;20039;-52
2021/09/15 01:59:23;;;;;;;8.63;6.65;;;19.70;90.20;;;;;;5094507;28;20032;-51
2021/09/15 02:01:51;;;;;;;8.63;6.93;;;19.70;90.10;;;;;;5058862;28;20050;-50
2021/09/15 02:04:17;;;;;;;9.57;6.72;;;19.70;90.00;;;;;;5042659;28;20088;-52
2021/09/15 02:06:43;;;;;;;9.60;6.88;;;19.70;90.00;;;;;;5094333;28;20111;-51
2021/09/15 02:09:09;;;;;;;7.32;6.57;;;19.70;89.60;;;;;;5058861;28;20047;-52
2021/09/15 02:11:36;;;;;;;7.78;6.28;;;19.60;90.10;;;;;;5081102;28;20494;-52
2021/09/15 02:14:03;;;;;;;12.20;7.15;;;19.70;90.00;;;;;;5076113;28;20028;-51
2021/09/15 02:16:29;;;;;;;13.18;7.22;;;19.60;90.00;;;;;;5041568;28;20036;-51
2021/09/15 02:18:55;;;;;;;8.35;6.93;;;19.60;90.20;;;;;;5093971;28;20114;-52
2021/09/15 02:21:21;;;;;;;10.10;6.78;;;19.50;90.40;;;;;;5058424;28;20115;-53
2021/09/15 02:23:47;;;;;;;10.55;6.53;;;19.50;90.50;;;;;;5094296;28;20085;-55
2021/09/15 02:26:14;;;;;;;13.70;7.72;;;19.40;90.70;;;;;;5025380;28;20043;-51
2021/09/15 02:28:40;;;;;;;8.10;7.30;;;19.50;90.50;;;;;;5094076;28;20024;-52
2021/09/15 02:31:06;;;;;;;15.95;7.32;;;19.50;90.50;;;;;;5093993;28;20081;-56
2021/09/15 02:33:35;;;;;;;13.27;7.43;;;19.50;90.50;;;;;;5093953;28;20042;-53
2021/09/15 02:36:01;;;;;;;9.98;7.10;;;19.60;90.50;;;;;;5058428;28;20510;-51
2021/09/15 02:38:26;;;;;;;8.45;7.18;;;19.50;90.40;;;;;;5093699;28;20056;-52
2021/09/15 02:40:55;;;;;;;13.93;7.28;;;19.50;90.60;;;;;;5025524;28;20035;-50
2021/09/15 02:43:20;;;;;;;15.68;8.07;;;19.40;90.80;;;;;;5094230;28;20028;-51
2021/09/15 02:45:46;;;;;;;10.35;8.07;;;19.40;90.80;;;;;;5058388;28;20111;-51
2021/09/15 02:48:12;;;;;;;13.13;9.38;;;19.30;91.10;;;;;;5093624;28;20028;-52
2021/09/15 02:50:38;;;;;;;11.27;8.20;;;19.20;91.50;;;;;;5058043;28;20452;-52
2021/09/15 02:53:04;;;;;;;11.98;8.20;;;19.30;91.30;;;;;;5093820;28;20494;-52
2021/09/15 02:55:29;;;;;;;12.35;7.95;;;19.20;91.50;;;;;;5057958;28;20036;-51
2021/09/15 02:57:58;;;;;;;13.73;7.72;;;18.90;92.00;;;;;;5093583;28;20109;-51
2021/09/15 03:00:24;;;;;;;14.77;7.68;;;18.90;92.10;;;;;;5093468;28;20059;-51
2021/09/15 03:02:50;;;;;;;13.00;7.35;;;19.00;91.70;;;;;;5093363;28;20059;-51
2021/09/15 03:05:15;;;;;;;15.60;7.60;;;19.00;91.50;;;;;;5093505;28;20028;-50
2021/09/15 03:07:41;;;;;;;17.52;7.70;;;19.10;91.40;;;;;;5093381;28;20544;-52
2021/09/15 03:10:08;;;;;;;12.20;7.60;;;19.20;91.20;;;;;;5093452;28;20028;-51
2021/09/15 03:12:34;;;;;;;12.38;8.50;;;19.20;91.10;;;;;;5008296;28;20036;-52
2021/09/15 03:15:00;;;;;;;12.70;8.55;;;18.80;91.90;;;;;;5093218;28;20492;-52
2021/09/15 03:17:26;;;;;;;10.27;7.25;;;;;;;;;;5093339;28;20165;-51
2021/09/15 03:19:52;;;;;;;10.88;7.82;;;18.00;93.60;;;;;;5093199;28;20028;-51
2021/09/15 03:22:18;;;;;;;13.63;9.13;;;17.70;95.00;;;;;;5092752;28;20048;-51
2021/09/15 03:24:44;;;;;;;10.43;8.38;;;;;;;;;;5093280;28;20032;-52
2021/09/15 03:27:10;;;;;;;13.00;8.98;;;17.70;99.90;;;;;;5024921;28;20380;-50
2021/09/15 03:29:35;;;;;;;13.23;8.25;;;17.60;99.60;;;;;;5093405;28;20081;-54
2021/09/15 03:32:02;;;;;;;14.30;9.93;;;17.60;99.90;;;;;;5093192;28;20028;-52
2021/09/15 03:34:28;;;;;;;15.05;7.75;;;17.80;99.90;;;;;;5041172;28;20028;-52
2021/09/15 03:36:54;;;;;;;15.57;9.98;;;18.00;99.90;;;;;;5057737;28;20043;-55
2021/09/15 03:39:22;;;;;;;13.27;8.90;;;18.20;99.90;;;;;;5093218;28;20383;-51
2021/09/15 03:41:50;;;;;;;10.98;9.82;;;;;;;;;;5041089;28;20032;-51
2021/09/15 03:44:16;;;;;;;12.15;8.73;;;18.50;99.40;;;;;;5093085;28;20050;-51
2021/09/15 03:46:42;;;;;;;17.27;9.68;;;18.60;98.70;;;;;;5092921;28;20467;-51
2021/09/15 03:49:07;;;;;;;13.88;8.73;;;18.70;99.20;;;;;;5024781;28;20063;-51
2021/09/15 03:51:33;;;;;;;15.68;8.10;;;18.80;99.90;;;;;;5093129;28;20464;-51
2021/09/15 03:53:59;;;;;;;12.30;8.45;;;18.90;97.70;;;;;;5057869;28;20043;-51
2021/09/15 03:56:25;;;;;;;12.43;8.18;;;18.90;99.90;;;;;;5092780;28;20036;-51
2021/09/15 03:58:51;;;;;;;13.25;8.38;;;;;;;;;;5074946;28;20047;-51
2021/09/15 04:01:17;;;;;;;18.77;9.65;;;;;;;;;;5092973;28;20048;-51
2021/09/15 04:03:43;;;;;;;14.10;8.25;;;;;;;;;;5057949;28;20515;-51
2021/09/15 04:06:09;;;;;;;17.52;8.65;;;19.00;99.90;;;;;;5055934;28;20396;-51
2021/09/15 04:08:35;;;;;;;16.90;8.40;;;19.10;99.90;;;;;;5076608;28;20032;-51
2021/09/15 04:11:01;;;;;;;18.88;9.15;;;19.10;98.90;;;;;;5076360;28;20031;-51
2021/09/15 04:13:27;;;;;;;29.02;9.52;;;19.10;98.60;;;;;;5076162;28;20024;-51
2021/09/15 04:15:53;;;;;;;20.85;8.85;;;19.10;98.50;;;;;;5076084;28;20127;-52
2021/09/15 04:18:19;;;;;;;15.27;7.90;;;19.10;98.00;;;;;;5076046;28;20127;-51
2021/09/15 04:20:46;;;;;;;12.18;7.97;;;19.10;97.90;;;;;;5076148;28;20111;-51
2021/09/15 04:31:32;;;;;;;8.93;8.00;;;19.00;98.10;;;;;;5076290;28;20376;-51
2021/09/15 04:34:01;;;;;;;12.57;8.10;;;18.80;98.10;;;;;;5075692;28;20033;-51
2021/09/15 04:36:26;;;;;;;10.25;7.65;;;18.70;99.20;;;;;;5075741;28;20029;-52
2021/09/15 04:38:52;;;;;;;12.02;8.10;;;18.20;99.90;;;;;;5068699;28;20384;-51
2021/09/15 04:41:18;;;;;;;9.20;8.20;;;17.70;99.90;;;;;;5030223;28;20045;-51
2021/09/15 04:43:44;;;;;;;11.13;8.38;;;17.50;99.90;;;;;;5065451;28;20707;-51
2021/09/15 04:46:10;;;;;;;13.00;8.32;;;17.80;99.90;;;;;;5063566;28;20108;-51
2021/09/15 04:48:38;;;;;;;8.73;7.82;;;18.10;99.20;;;;;;5067632;28;20057;-52
2021/09/15 04:51:04;;;;;;;14.45;8.68;;;;;;;;;;5064167;28;20052;-51
2021/09/15 04:53:30;;;;;;;12.48;8.15;;;;;;;;;;5065483;28;20017;-52
2021/09/15 04:55:56;;;;;;;12.40;7.82;;;18.40;99.90;;;;;;5063953;28;20021;-52
2021/09/15 04:58:22;;;;;;;10.15;7.85;;;18.50;99.90;;;;;;5064112;28;20029;-51
2021/09/15 05:00:48;;;;;;;8.60;7.70;;;18.50;99.90;;;;;;5065471;28;20031;-51
2021/09/15 05:03:14;;;;;;;11.75;8.05;;;;;;;;;;5063527;28;20075;-52
2021/09/15 05:05:40;;;;;;;17.38;8.32;;;;;;;;;;5064412;28;20078;-50
2021/09/15 05:08:06;;;;;;;22.73;10.55;;;;;;;;;;5065078;28;20025;-51
2021/09/15 05:10:32;;;;;;;20.20;9.48;;;19.10;99.90;;;;;;5063035;28;20036;-51
2021/09/15 05:12:58;;;;;;;20.17;9.27;;;19.40;98.20;;;;;;5064555;28;20021;-52
2021/09/15 05:15:25;;;;;;;16.00;8.90;;;19.50;99.90;;;;;;5064812;28;20024;-51
2021/09/15 05:17:51;;;;;;;28.73;17.63;;;19.60;96.90;;;;;;5062974;28;20025;-51
2021/09/15 05:20:18;;;;;;;24.10;15.80;;;;;;;;;;5064639;28;20089;-52
2021/09/15 05:22:49;;;;;;;18.65;12.52;;;19.60;99.90;;;;;;5064431;28;20489;-51
2021/09/15 05:25:15;;;;;;;26.90;16.02;;;19.70;96.00;;;;;;5063173;28;20029;-51
2021/09/15 05:27:41;;;;;;;21.67;13.93;;;19.70;98.80;;;;;;5024870;28;20041;-52
2021/09/15 05:30:08;;;;;;;13.85;9.25;;;19.80;97.90;;;;;;5039521;28;20039;-51
2021/09/15 05:32:34;;;;;;;11.52;9.00;;;19.60;98.00;;;;;;5064675;28;20093;-52
2021/09/15 05:34:59;;;;;;;14.45;9.52;;;19.60;98.00;;;;;;5058595;28;20400;-52
2021/09/15 05:37:25;;;;;;;17.05;9.27;;;19.70;97.90;;;;;;5040195;28;20078;-53
2021/09/15 05:39:51;;;;;;;14.07;9.52;;;19.90;99.90;;;;;;5058517;28;20032;-51
2021/09/15 05:42:17;;;;;;;11.77;9.57;;;20.10;97.10;;;;;;5034044;28;20036;-52
2021/09/15 05:44:42;;;;;;;12.27;9.18;;;20.20;96.30;;;;;;5085068;28;20464;-52
2021/09/15 05:47:08;;;;;;;9.93;8.88;;;20.40;98.50;;;;;;5080209;28;20028;-51
2021/09/15 05:49:34;;;;;;;15.50;10.02;;;20.40;95.20;;;;;;5088724;28;20035;-51
2021/09/15 05:52:00;;;;;;;12.93;9.70;;;20.50;94.90;;;;;;5087245;28;20059;-54
2021/09/15 05:54:25;;;;;;;20.30;10.05;;;20.50;94.90;;;;;;5083799;28;20020;-52
2021/09/15 05:56:51;;;;;;;18.17;11.10;;;20.60;94.90;;;;;;5082990;28;20028;-54
2021/09/15 05:59:17;;;;;;;13.18;9.90;;;20.80;94.80;;;;;;5084463;28;20031;-52
2021/09/15 06:01:43;;;;;;;15.13;10.27;;;20.90;94.50;;;;;;5048039;28;20036;-51
2021/09/15 06:04:08;;;;;;;23.10;10.82;;;20.90;94.60;;;;;;5040988;28;20439;-49
2021/09/15 06:06:34;;;;;;;19.10;10.85;;;21.10;94.70;;;;;;5042428;28;20051;-51
2021/09/15 06:09:00;;;;;;;13.07;11.05;;;21.20;94.70;;;;;;5012786;28;20037;-54
2021/09/15 06:11:27;;;;;;;12.02;9.82;;;21.00;97.70;;;;;;5031469;28;20063;-51
2021/09/15 06:13:54;;;;;;;13.93;10.10;;;20.80;95.80;;;;;;4982624;28;20037;-53
2021/09/15 06:16:23;;;;;;;13.25;10.02;;;20.60;95.70;;;;;;5032663;28;20408;-55
2021/09/15 06:18:49;;;;;;;11.85;9.15;;;20.60;95.30;;;;;;5020303;28;20453;-50
2021/09/15 06:21:16;;;;;;;15.23;10.13;;;20.70;95.10;;;;;;5048339;28;20515;-51
2021/09/15 06:23:42;;;;;;;15.57;10.75;;;20.80;95.00;;;;;;5002207;28;20048;-51
2021/09/15 06:26:08;;;;;;;15.73;10.98;;;21.10;95.30;;;;;;5051423;28;20032;-52
2021/09/15 06:28:34;;;;;;;14.45;11.02;;;21.60;99.90;;;;;;5051034;28;20021;-52
2021/09/15 06:31:01;;;;;;;17.70;11.68;;;21.80;97.10;;;;;;4994951;28;20037;-50
2021/09/15 06:33:27;;;;;;;17.73;12.55;;;21.90;99.90;;;;;;4979088;28;20045;-51
2021/09/15 06:35:54;;;;;;;14.75;10.73;;;22.10;96.70;;;;;;5029326;28;20037;-52
2021/09/15 06:38:20;;;;;;;29.55;12.38;;;22.20;95.60;;;;;;5033301;28;20045;-52
2021/09/15 06:40:46;;;;;;;17.25;11.00;;;22.70;93.70;;;;;;5033691;28;20025;-52
2021/09/15 06:43:13;;;;;;;18.45;10.75;;;;;;;;;;5033618;28;20057;-52
2021/09/15 06:45:39;;;;;;;17.92;10.45;;;;;;;;;;5031520;28;20042;-52
2021/09/15 06:48:05;;;;;;;13.45;10.50;;;;;;;;;;5033420;28;20036;-53
2021/09/15 06:50:31;;;;;;;15.85;10.95;;;24.10;99.90;;;;;;5052848;28;20028;-52
2021/09/15 06:52:57;;;;;;;17.48;9.93;;;24.10;90.40;;;;;;5073052;28;20031;-52
2021/09/15 06:55:23;;;;;;;18.85;11.02;;;24.10;89.00;;;;;;5073597;28;20029;-51
2021/09/15 06:57:50;;;;;;;16.20;9.73;;;24.30;88.30;;;;;;5073406;28;20060;-52
2021/09/15 07:00:18;;;;;;;15.57;9.82;;;24.40;87.50;;;;;;5073164;28;20028;-51
2021/09/15 07:02:45;;;;;;;13.45;9.13;;;24.50;87.00;;;;;;5072947;28;20028;-52
2021/09/15 07:05:11;;;;;;;11.90;9.13;;;24.70;87.20;;;;;;5073214;28;20465;-52
2021/09/15 07:07:37;;;;;;;12.00;8.68;;;24.90;92.20;;;;;;5069721;28;20376;-52
2021/09/15 07:10:05;;;;;;;15.48;9.25;;;24.90;89.50;;;;;;5062522;28;20499;-53
2021/09/15 07:12:30;;;;;;;16.38;8.73;;;25.10;90.40;;;;;;5014063;28;20092;-53
2021/09/15 07:14:56;;;;;;;11.85;9.07;;;25.30;84.90;;;;;;5040961;28;20030;-50
2021/09/15 07:17:22;;;;;;;20.95;10.27;;;25.50;84.10;;;;;;5044069;28;20033;-50
2021/09/15 07:19:48;;;;;;;11.68;8.55;;;25.60;84.00;;;;;;5019869;28;20045;-51
2021/09/15 07:22:13;;;;;;;15.25;9.27;;;25.80;83.70;;;;;;5063457;28;20056;-51
2021/09/15 07:24:39;;;;;;;14.68;10.02;;;26.00;83.90;;;;;;5057824;28;20368;-51
2021/09/15 07:27:05;;;;;;;12.98;9.23;;;26.30;83.00;;;;;;5057774;28;20074;-51
2021/09/15 07:29:31;;;;;;;19.70;9.18;;;;;;;;;;5046740;28;20400;-50
2021/09/15 07:31:57;;;;;;;20.48;10.73;;;;;;;;;;5072739;28;20487;-50
2021/09/15 07:34:23;;;;;;;13.55;10.05;;;27.00;86.20;;;;;;5074695;28;20028;-52
2021/09/15 07:36:49;;;;;;;16.70;11.05;;;27.10;81.30;;;;;;5072131;28;20507;-52
2021/09/15 07:39:16;;;;;;;21.23;10.85;;;;;;;;;;5083647;28;20028;-53
2021/09/15 07:41:41;;;;;;;16.58;11.13;;;27.80;78.70;;;;;;5068497;28;20035;-52
2021/09/15 07:44:07;;;;;;;12.75;9.52;;;27.90;78.20;;;;;;5085213;28;20028;-53
2021/09/15 07:46:33;;;;;;;12.32;8.38;;;28.30;83.60;;;;;;5042118;28;20075;-51
2021/09/15 07:49:09;;;;;;;10.85;7.55;;;28.50;79.60;;;;;;5060776;28;20494;-50
2021/09/15 07:51:34;;;;;;;9.73;5.97;;;28.70;77.50;;;;;;5078773;28;20490;-51
2021/09/15 07:54:01;;;;;;;10.15;6.63;;;28.70;74.50;;;;;;5061189;28;20032;-50
2021/09/15 07:56:27;;;;;;;10.82;6.40;;;28.90;74.00;;;;;;5096775;28;20043;-52
2021/09/15 07:58:53;;;;;;;13.38;7.38;;;28.90;74.70;;;;;;5096799;28;20063;-51
2021/09/15 08:01:22;;;;;;;8.48;6.40;;;;;;;;;;5045013;28;20072;-49
2021/09/15 08:03:48;;;;;;;11.93;6.90;;;;;;;;;;5065597;28;20111;-50
2021/09/15 08:06:15;;;;;;;10.43;6.32;;;;;;;;;;5068420;28;20104;-51
2021/09/15 08:08:40;;;;;;;11.07;6.78;;;29.80;98.50;;;;;;5068169;28;20025;-51
2021/09/15 08:11:06;;;;;;;11.27;7.20;;;30.20;89.10;;;;;;5065574;28;20032;-49
2021/09/15 08:13:32;;;;;;;9.90;5.97;;;;;;;;;;5032665;28;20040;-50
2021/09/15 08:15:58;;;;;;;9.02;5.72;;;;;;;;;;5027104;28;20702;-50
2021/09/15 08:18:24;;;;;;;8.88;5.63;;;;;;;;;;5063564;28;20068;-52
2021/09/15 08:20:51;;;;;;;8.27;5.57;;;;;;;;;;5053096;28;20037;-51
2021/09/15 08:23:18;;;;;;;10.25;5.65;;;;;;;;;;5063997;28;20056;-50
2021/09/15 08:25:45;;;;;;;7.82;4.80;;;31.40;71.20;;;;;;5070702;28;20036;-51
2021/09/15 08:28:10;;;;;;;8.13;4.82;;;31.00;67.10;;;;;;5068232;28;20080;-50
2021/09/15 08:30:36;;;;;;;10.02;5.05;;;30.80;66.30;;;;;;5066312;28;20115;-49
2021/09/15 08:33:03;;;;;;;10.00;5.38;;;30.90;66.30;;;;;;5021998;28;20043;-52
2021/09/15 08:35:28;;;;;;;9.77;5.38;;;31.10;67.40;;;;;;5063923;28;20376;-50
2021/09/15 08:37:54;;;;;;;11.50;5.07;;;31.30;66.30;;;;;;5067784;28;20032;-51
2021/09/15 08:40:20;;;;;;;6.28;4.28;;;;;;;;;;5026002;28;20372;-53
2021/09/15 08:42:46;;;;;;;8.57;4.32;;;;;;;;;;5069530;28;20032;-51
2021/09/15 08:45:13;;;;;;;9.75;4.30;;;32.70;63.60;;;;;;5065282;28;20032;-52
2021/09/15 08:47:44;;;;;;;8.35;4.75;;;;;;;;;;5022260;28;20112;-51
2021/09/15 08:50:11;;;;;;;6.90;4.35;;;;;;;;;;5068539;28;20036;-51
2021/09/15 08:52:37;;;;;;;5.43;4.00;;;;;;;;;;5067655;28;20025;-51
2021/09/15 08:55:04;;;;;;;7.55;4.35;;;;;;;;;;5065084;28;20037;-50
2021/09/15 08:57:30;;;;;;;7.13;4.40;;;;;;;;;;5063602;28;20438;-53
2021/09/15 08:59:56;;;;;;;7.50;4.25;;;32.10;60.40;;;;;;5062172;28;20036;-52
2021/09/15 09:02:22;;;;;;;6.53;4.47;;;32.90;61.30;;;;;;5022776;28;20465;-51
2021/09/15 09:05:00;;;;;;;8.60;4.28;;;;;;;;;;5031821;28;20029;-51
2021/09/15 09:07:27;;;;;;;8.30;4.60;;;34.10;91.20;;;;;;5060170;28;20033;-50
2021/09/15 09:09:55;;;;;;;8.02;4.75;;;;;;;;;;5066191;28;20086;-52
2021/09/15 09:12:25;;;;;;;6.97;4.32;;;;;;;;;;5064576;28;20025;-52
2021/09/15 09:14:51;;;;;;;8.65;4.65;;;34.50;91.10;;;;;;5059167;28;20113;-52
2021/09/15 09:17:30;;;;;;;6.72;4.47;;;34.80;84.60;;;;;;5065802;28;20119;-52
2021/09/15 09:20:22;;;;;;;6.80;4.68;;;34.70;65.20;;;;;;5065384;28;20075;-51
2021/09/15 09:22:48;;;;;;;;;;;;;;;;;;5032170;28;20082;-51
2021/09/15 09:25:19;;;;;;;8.63;4.97;;;35.70;80.80;;;;;;5029615;28;19913;-53
2021/09/15 09:27:46;;;;;;;6.57;4.10;;;;;;;;;;5022480;28;20040;-51
2021/09/15 09:30:39;;;;;;;10.35;4.53;;;36.00;58.30;;;;;;5027701;28;20045;-50
2021/09/15 09:33:06;;;;;;;6.60;4.88;;;35.90;56.70;;;;;;5057913;28;20119;-52
2021/09/15 09:35:51;;;;;;;15.15;5.18;;;35.20;57.20;;;;;;5067250;28;20056;-51
2021/09/15 09:38:21;;;;;;;8.38;4.75;;;35.90;57.50;;;;;;5063030;28;20033;-51
2021/09/15 09:40:59;;;;;;;6.78;4.78;;;35.00;56.40;;;;;;5067651;28;20101;-52
2021/09/15 09:43:26;;;;;;;5.93;4.55;;;35.60;57.40;;;;;;5014812;28;20389;-53
2021/09/15 09:45:52;;;;;;;6.93;4.35;;;36.00;56.20;;;;;;5051681;28;20029;-50
2021/09/15 09:48:54;;;;;;;8.45;4.40;;;36.00;54.80;;;;;;5061812;28;20027;-51
2021/09/15 09:51:41;;;;;;;7.80;4.65;;;;;;;;;;4970134;28;20043;-53
2021/09/15 09:54:20;;;;;;;6.95;4.32;;;36.20;54.10;;;;;;4965589;28;20035;-52
2021/09/15 09:56:51;;;;;;;7.75;4.90;;;35.80;55.20;;;;;;4973084;28;20074;-51
2021/09/15 09:59:19;;;;;;;7.28;4.82;;;36.30;55.80;;;;;;4934906;28;20042;-53
2021/09/15 10:01:46;;;;;;;7.47;4.80;;;36.60;55.70;;;;;;4978801;28;20118;-53
2021/09/15 10:04:13;;;;;;;6.00;4.43;;;35.80;55.10;;;;;;4970328;28;20034;-53
2021/09/15 10:06:40;;;;;;;7.93;5.30;;;36.40;54.90;;;;;;4971458;28;20039;-52
2021/09/15 10:09:07;;;;;;;9.52;4.65;;;36.40;56.50;;;;;;4961078;28;20042;-53
2021/09/15 10:11:35;;;;;;;8.07;4.53;;;36.90;55.50;;;;;;4946168;28;20037;-52
2021/09/15 10:14:04;;;;;;;9.43;5.05;;;36.90;55.60;;;;;;4974801;28;20054;-51
2021/09/15 10:16:32;;;;;;;5.78;4.93;;;;;;;;;;4972800;28;20034;-51
2021/09/15 10:19:05;;;;;;;10.60;5.50;;;36.90;53.10;;;;;;4975265;28;20129;-51
2021/09/15 10:21:34;;;;;;;8.35;4.88;;;36.60;54.30;;;;;;4972704;28;20113;-52
2021/09/15 10:24:00;;;;;;;7.28;5.05;;;;;;;;;;4972550;28;20495;-53
2021/09/15 10:26:37;;;;;;;7.35;4.82;;;;;;;;;;4967995;28;20034;-54
2021/09/15 10:29:29;;;;;;;9.70;5.57;;;37.40;54.30;;;;;;5018528;28;20057;-51
2021/09/15 10:32:10;;;;;;;8.68;5.55;;;37.50;53.30;;;;;;4958250;28;20571;-50
2021/09/15 10:34:38;;;;;;;7.13;4.80;;;38.00;54.20;;;;;;4998887;28;20030;-49
2021/09/15 10:37:09;;;;;;;7.35;4.80;;;37.10;52.40;;;;;;5007159;28;20125;-49
2021/09/15 10:39:52;;;;;;;8.90;4.55;;;37.50;52.80;;;;;;4999889;28;20037;-49
2021/09/15 10:45:13;;;;;;;5.13;4.63;;;37.20;52.00;;;;;;4994579;28;20125;-49
2021/09/15 10:47:52;;;;;;;9.55;4.95;;;36.90;52.60;;;;;;5004552;28;20117;-52
2021/09/15 10:50:31;;;;;;;5.85;4.18;;;37.00;53.90;;;;;;5003928;28;20034;-50
2021/09/15 10:53:08;;;;;;;4.93;4.43;;;37.40;52.00;;;;;;5003600;28;20044;-51
2021/09/15 10:55:46;;;;;;;8.77;4.50;;;38.00;52.40;;;;;;5001173;28;20050;-51
2021/09/15 10:58:13;;;;;;;8.73;4.78;;;37.70;52.80;;;;;;5004148;28;20043;-52
2021/09/15 11:00:56;;;;;;;7.38;4.53;;;37.80;51.90;;;;;;5008533;28;20096;-52
2021/09/15 11:03:23;;;;;;;11.00;4.85;;;38.10;51.60;;;;;;5018311;28;20026;-49
2021/09/15 11:05:49;;;;;;;8.10;4.85;;;38.50;64.50;;;;;;5021706;28;20117;-51
2021/09/15 11:08:33;;;;;;;9.38;5.32;;;38.50;50.90;;;;;;5023932;28;20116;-50
2021/09/15 11:11:00;;;;;;;7.53;5.22;;;38.40;50.20;;;;;;5019612;28;20045;-50
2021/09/15 11:13:30;;;;;;;6.45;4.88;;;38.40;51.60;;;;;;5025597;28;20033;-48
2021/09/15 11:15:56;;;;;;;6.43;4.57;;;38.40;51.80;;;;;;5034788;28;20619;-49
2021/09/15 11:18:23;;;;;;;8.60;4.95;;;38.60;50.80;;;;;;5016572;28;20056;-52
2021/09/15 11:21:03;;;;;;;6.82;4.38;;;38.80;50.90;;;;;;5025426;28;20800;-49
2021/09/15 11:23:30;;;;;;;5.95;4.60;;;38.80;50.80;;;;;;5061485;28;20431;-50
2021/09/15 11:25:57;;;;;;;6.28;4.85;;;38.40;50.30;;;;;;5068786;28;20040;-52
2021/09/15 11:28:24;;;;;;;6.93;4.82;;;;;;;;;;5062092;28;20037;-48
2021/09/15 11:30:50;;;;;;;7.53;5.22;;;;;;;;;;5048494;28;20074;-51
2021/09/15 11:33:26;;;;;;;8.70;4.72;;;36.50;51.20;;;;;;5067590;28;20045;-50
2021/09/15 11:35:58;;;;;;;7.78;4.82;;;36.80;53.00;;;;;;5065037;28;20032;-49
2021/09/15 11:38:28;;;;;;;6.40;4.82;;;37.20;52.80;;;;;;5071005;28;20032;-52
2021/09/15 11:41:04;;;;;;;5.38;4.60;;;36.80;51.50;;;;;;5075346;28;20353;-51
2021/09/15 11:43:29;;;;;;;5.18;4.68;;;36.80;53.00;;;;;;5068445;28;20384;-51
2021/09/15 11:45:55;;;;;;;8.88;4.82;;;37.10;59.40;;;;;;5063044;28;20043;-50
2021/09/15 11:48:31;;;;;;;6.65;4.63;;;37.30;69.30;;;;;;5070766;28;20029;-50
2021/09/15 11:50:57;;;;;;;5.57;4.80;;;;;;;;;;5071800;28;20531;-49
2021/09/15 11:53:25;;;;;;;7.53;4.63;;;;;;;;;;5066358;28;20029;-48
2021/09/15 11:56:00;;;;;;;7.43;4.90;;;37.80;49.10;;;;;;5065731;28;20028;-50
2021/09/15 11:58:26;;;;;;;6.82;4.45;;;37.70;49.90;;;;;;5067588;28;20062;-53
2021/09/15 12:00:52;;;;;;;5.80;4.18;;;37.50;49.80;;;;;;5072339;28;20032;-51
2021/09/15 12:03:27;;;;;;;9.20;4.68;;;37.50;49.80;;;;;;5067234;28;20035;-49
2021/09/15 12:06:02;;;;;;;9.25;4.60;;;37.20;51.00;;;;;;5069197;28;20029;-52
2021/09/15 12:08:28;;;;;;;5.47;4.88;;;37.70;49.90;;;;;;5067195;28;20036;-52
2021/09/15 12:10:58;;;;;;;4.97;4.47;;;37.50;49.40;;;;;;5069511;28;20038;-51
2021/09/15 12:13:34;;;;;;;6.25;4.50;;;37.20;49.20;;;;;;5063439;28;20036;-51
2021/09/15 12:16:00;;;;;;;6.05;4.63;;;36.10;49.40;;;;;;5066058;28;20036;-51
2021/09/15 12:18:47;;;;;;;5.28;4.78;;;36.50;50.10;;;;;;5014215;28;20049;-52
2021/09/15 12:21:21;;;;;;;6.80;5.35;;;36.40;50.50;;;;;;5063485;28;20553;-50
2021/09/15 12:23:48;;;;;;;7.53;5.18;;;36.10;51.80;;;;;;5064911;28;20127;-49
2021/09/15 12:26:14;;;;;;;6.40;5.20;;;36.30;52.60;;;;;;5068410;28;20028;-52
2021/09/15 12:28:40;;;;;;;6.90;4.75;;;36.60;52.90;;;;;;5064833;28;20107;-52
2021/09/15 12:31:15;;;;;;;7.20;4.72;;;36.50;52.90;;;;;;5062101;28;20036;-52
2021/09/15 12:33:41;;;;;;;11.80;5.90;;;36.80;53.50;;;;;;5067386;28;20033;-52
2021/09/15 12:36:13;;;;;;;5.15;4.60;;;36.80;53.80;;;;;;5067045;28;20136;-50
2021/09/15 12:38:58;;;;;;;12.60;5.40;;;36.40;52.40;;;;;;5028867;28;20045;-49
2021/09/15 12:41:26;;;;;;;7.53;5.13;;;36.50;52.90;;;;;;5067158;28;20544;-51
2021/09/15 12:44:09;;;;;;;5.45;4.75;;;36.80;51.80;;;;;;5067140;28;20029;-51
2021/09/15 12:46:35;;;;;;;7.45;5.68;;;36.80;51.20;;;;;;5029249;28;20044;-47
2021/09/15 12:49:00;;;;;;;5.75;4.63;;;36.90;51.60;;;;;;5065852;28;20032;-48
2021/09/15 12:51:28;;;;;;;10.63;5.00;;;36.90;50.50;;;;;;5067868;28;20537;-49
2021/09/15 12:53:56;;;;;;;7.45;5.25;;;37.40;51.20;;;;;;5066519;28;20325;-51
2021/09/15 12:56:23;;;;;;;6.35;4.72;;;37.50;51.60;;;;;;5064120;28;20037;-51
2021/09/15 12:58:50;;;;;;;7.57;4.90;;;37.40;50.50;;;;;;5066530;28;20131;-50
2021/09/15 13:01:23;;;;;;;15.90;5.97;;;37.70;51.60;;;;;;5066056;28;20036;-50
2021/09/15 13:03:53;;;;;;;7.25;4.78;;;37.90;51.30;;;;;;5066976;28;20055;-48
2021/09/15 13:06:20;;;;;;;6.60;5.53;;;37.70;52.00;;;;;;5018075;28;20120;-48
2021/09/15 13:08:48;;;;;;;9.48;4.80;;;37.70;51.00;;;;;;5065812;28;20048;-49
2021/09/15 13:11:15;;;;;;;7.53;4.85;;;37.50;50.40;;;;;;5066169;28;20822;-49